Flight Track Log - Related Links

Times and Time Zones

All times are in EDT time to prevent confusion due to time zone crossing. See the N373RS flight status page for this flight to view local times or setup timezone preferences in your user account.

Time Position Orientation Groundspeed Altitude Reporting Facility
EDT Latitude Longitude Course Direction KTS MPH feet Rate Location/Type
Fri 09:54:34 AM 40.8333 -74.1000 180° South 172 198 1,400  Level New York TRACON
Fri 09:55:34 AM 40.8000 -74.1833 242° Southwest 220 253 3,000 1,300 Climbing New York TRACON
Fri 09:56:34 AM 40.7667 -74.2667 242° Southwest 265 305 4,000 1,450 Climbing New York TRACON
Fri 09:57:34 AM 40.7167 -74.3333 225° Southwest 273 314 5,900 1,053 Climbing New York TRACON
Fri 09:58:28 AM 40.6500 -74.3167 169° South 284 327 6,000 53 Climbing New York TRACON
Fri 09:59:28 AM 40.5833 -74.2833 159° South 267 307 6,000  Level New York TRACON
Fri 10:00:00 AM 40.2512 -74.1667 180° South  Level FlightAware Approximate
Fri 10:00:28 AM 40.5000 -74.2500 163° South 273 314 6,000  Level New York TRACON
Fri 10:02:04 AM 40.3847 -74.1986 161° South 300 345 6,000 538 Level New York Center
Fri 10:03:04 AM 40.3364 -74.1419 138° Southeast 258 297 7,400 2,420 Climbing New York Center
Fri 10:04:03 AM 40.3019 -74.0339 113° Southeast 273 314 10,800 3,529 Climbing New York Center
Fri 10:05:03 AM 40.2347 -74.0525 192° South 213 245 14,400 2,777 Climbing New York Center
Fri 10:06:04 AM 40.1686 -74.1064 212° Southwest 234 269 16,400 2,066 Climbing New York Center
Fri 10:07:05 AM 40.0936 -74.1761 215° Southwest 310 357 18,600 2,265 Climbing New York Center
Fri 10:09:28 AM 39.9050 -74.3472 215° Southwest 342 394 24,100 2,069 Climbing Washington Center
Fri 10:10:28 AM 39.8267 -74.4269 218° Southwest 361 415 25,600 1,576 Climbing Washington Center
Fri 10:11:26 AM 39.7567 -74.5092 222° Southwest 367 422 27,200 1,613 Climbing Washington Center
Fri 10:12:27 AM 39.6825 -74.6072 226° Southwest 378 435 28,800 1,475 Climbing Washington Center
Fri 10:13:28 AM 39.6081 -74.7053 225° Southwest 383 441 30,200 1,059 Climbing Washington Center
Fri 10:14:26 AM 39.5358 -74.8058 227° Southwest 383 441 30,900 807 Climbing Washington Center
Fri 10:15:27 AM 39.4572 -74.9061 225° Southwest 383 441 31,800 1,328 Climbing Washington Center
Fri 10:16:28 AM 39.3850 -75.0061 227° Southwest 383 441 33,600 1,424 Climbing Washington Center
Fri 10:17:25 AM 39.3061 -75.0981 222° Southwest 383 441 34,600 1,220 Climbing Washington Center
Fri 10:18:26 AM 39.2083 -75.1522 203° Southwest 375 432 36,000 1,525 Climbing Washington Center
Fri 10:19:27 AM 39.1147 -75.1931 199° South 370 426 37,700 1,230 Climbing Washington Center
Fri 10:20:28 AM 39.0192 -75.2364 199° South 365 420 38,500 744 Climbing Washington Center
Fri 10:21:28 AM 38.9192 -75.2769 198° South 371 427 39,200 763 Climbing Washington Center
Fri 10:22:26 AM 38.8169 -75.3147 196° South 376 433 40,000 403 Climbing Washington Center
Fri 10:23:27 AM 38.7150 -75.3603 199° South 381 438 40,000  Level Washington Center
Fri 10:24:27 AM 38.6108 -75.4003 197° South 386 444 40,000  Level Washington Center
Fri 10:25:25 AM 38.5067 -75.4458 199° South 391 450 40,000  Level Washington Center
Fri 10:26:26 AM 38.4003 -75.4911 198° South 396 456 40,000  Level Washington Center
Fri 10:27:26 AM 38.2942 -75.5283 195° South 401 461 40,000  Level Washington Center
Fri 10:28:27 AM 38.1919 -75.5758 200° South 401 461 40,000  Level Washington Center
Fri 10:29:28 AM 38.0875 -75.6233 200° South 401 461 40,000  Level Washington Center
Fri 10:30:28 AM 37.9792 -75.6761 201° Southwest 396 456 40,000  Level Washington Center
Fri 10:31:25 AM 37.8747 -75.7258 201° Southwest 391 450 40,000  Level Washington Center
Fri 10:32:26 AM 37.7725 -75.7706 199° South 391 450 40,000  Level Washington Center
Fri 10:33:27 AM 37.6683 -75.8175 200° South 391 450 40,000  Level Washington Center
Fri 10:34:27 AM 37.5658 -75.8642 200° South 391 450 40,000  Level Washington Center
Fri 10:35:28 AM 37.4617 -75.9111 200° South 396 456 40,000  Level Washington Center
Fri 10:36:26 AM 37.3550 -75.9575 199° South 396 456 40,000  Level Washington Center
Fri 10:37:26 AM 37.2528 -76.0042 200° South 401 461 40,000  Level Washington Center
Fri 10:38:27 AM 37.1461 -76.0506 199° South 401 461 40,000  Level Washington Center
Fri 10:39:27 AM 37.0436 -76.0967 200° South 401 461 40,000  Level Washington Center
Fri 10:40:28 AM 36.9414 -76.1350 197° South 414 476 40,000  Level Washington Center
Fri 10:41:26 AM 36.8367 -76.1811 199° South 419 482 40,000  Level Washington Center
Fri 10:42:27 AM 36.7303 -76.2269 199° South 414 476 40,000  Level Washington Center
Fri 10:43:28 AM 36.6150 -76.2828 201° Southwest 414 476 40,000  Level Washington Center
Fri 10:44:28 AM 36.5083 -76.3283 199° South 409 471 40,000  Level Washington Center
Fri 10:45:25 AM 36.3997 -76.3739 199° South 409 471 40,000  Level Washington Center
Fri 10:46:26 AM 36.2931 -76.4192 199° South 409 471 40,000  Level Washington Center
Fri 10:47:27 AM 36.1842 -76.4644 199° South 409 471 40,000  Level Washington Center
Fri 10:48:27 AM 36.0753 -76.5119 199° South 409 471 40,000  Level Washington Center
Fri 10:49:28 AM 35.9747 -76.5544 199° South 414 476 40,000  Level Washington Center
Fri 10:50:26 AM 35.8658 -76.5994 199° South 419 482 40,000  Level Washington Center
Fri 10:51:27 AM 35.7550 -76.6464 199° South 424 488 40,000  Level Washington Center
Fri 10:52:28 AM 35.6461 -76.6936 199° South 424 488 40,000  Level Washington Center
Fri 10:53:28 AM 35.5350 -76.7406 199° South 424 488 40,000  Level Washington Center
Fri 10:54:26 AM 35.4136 -76.7950 200° South 424 488 40,000  Level Washington Center
Fri 10:55:27 AM 35.3025 -76.8392 198° South 424 488 40,000  Level Washington Center
Fri 10:56:28 AM 35.1892 -76.8856 198° South 430 495 40,000  Level Washington Center
Fri 10:57:28 AM 35.0908 -76.9322 201° Southwest 425 489 40,000  Level Washington Center
Fri 10:58:26 AM 34.9775 -76.9786 199° South 430 495 40,000  Level Washington Center
Fri 10:59:27 AM 34.8622 -77.0247 198° South 430 495 40,000  Level Washington Center
Fri 11:00:28 AM 34.7511 -77.0708 199° South 430 495 40,000  Level Washington Center
Fri 11:01:28 AM 34.6400 -77.1194 200° South 425 489 40,000  Level Washington Center
Fri 11:02:26 AM 34.5244 -77.1650 198° South 425 489 40,000  Level Washington Center
Fri 11:03:26 AM 34.4133 -77.2108 199° South 425 489 40,000  Level Washington Center
Fri 11:04:27 AM 34.2981 -77.2589 199° South 425 489 40,000  Level Washington Center
Fri 11:05:28 AM 34.1825 -77.3017 197° South 430 495 40,000  Level Washington Center
Fri 11:06:57 AM 33.9956 -77.3797 199° South 439 505 40,000  Level Jacksonville Center
Fri 11:07:57 AM 33.8806 -77.4244 198° South 439 505 40,000  Level Jacksonville Center
Fri 11:08:57 AM 33.7636 -77.4717 199° South 439 505 40,000  Level Jacksonville Center
Fri 11:09:57 AM 33.6489 -77.5189 199° South 439 505 40,000  Level Jacksonville Center
Fri 11:10:57 AM 33.5300 -77.5658 198° South 439 505 40,000  Level Jacksonville Center
Fri 11:11:57 AM 33.4150 -77.6150 200° South 439 505 40,000  Level Jacksonville Center
Fri 11:12:57 AM 33.2961 -77.6619 198° South 439 505 40,000  Level Jacksonville Center
Fri 11:13:57 AM 33.1811 -77.7058 198° South 439 505 40,000  Level Jacksonville Center
Fri 11:14:57 AM 33.0642 -77.7547 199° South 439 505 40,000  Level Jacksonville Center
Fri 11:15:57 AM 32.9450 -77.8011 198° South 439 505 40,000  Level Jacksonville Center
Fri 11:16:57 AM 32.8300 -77.8472 199° South 439 505 40,000  Level Jacksonville Center
Fri 11:17:57 AM 32.7108 -77.8958 199° South 439 505 40,000  Level Jacksonville Center
Fri 11:18:57 AM 32.5936 -77.9392 197° South 439 505 40,000 -50 Level Jacksonville Center
Fri 11:19:57 AM 32.4764 -77.9875 199° South 445 512 39,900  Descending Jacksonville Center
Fri 11:20:57 AM 32.3592 -78.0331 198° South 445 512 40,000 50 Climbing Jacksonville Center
Fri 11:21:57 AM 32.2419 -78.0761 197° South 445 512 40,000  Level Jacksonville Center
Fri 11:22:57 AM 32.1228 -78.1242 199° South 445 512 40,000  Level Jacksonville Center
Fri 11:23:57 AM 32.0075 -78.1694 198° South 445 512 40,000  Level Jacksonville Center
Fri 11:24:57 AM 31.8900 -78.2097 196° South 445 512 40,000  Level Jacksonville Center
Fri 11:25:57 AM 31.7750 -78.2594 200° South 440 506 40,000  Level Jacksonville Center
Fri 11:26:57 AM 31.6681 -78.3064 200° South 445 512 40,000  Level Jacksonville Center
Fri 11:27:57 AM 31.5547 -78.3483 198° South 445 512 40,000  Level Jacksonville Center
Fri 11:28:57 AM 31.4375 -78.3931 198° South 440 506 40,000  Level Jacksonville Center
Fri 11:29:57 AM 31.3181 -78.4403 199° South 440 506 40,000  Level Jacksonville Center
Fri 11:30:57 AM 31.2044 -78.4772 196° South 440 506 40,000  Level Jacksonville Center
Fri 11:31:57 AM 31.0853 -78.5264 199° South 440 506 40,000  Level Jacksonville Center
Fri 11:32:57 AM 30.9656 -78.5731 198° South 440 506 40,000  Level Jacksonville Center
Fri 11:33:57 AM 30.8461 -78.6197 199° South 445 512 40,000  Level Jacksonville Center
Fri 11:34:57 AM 30.7264 -78.6614 197° South 452 520 40,000  Level Jacksonville Center
Fri 11:36:34 AM 30.5331 -78.7144 193° South 449 517 40,000  Level Miami Center
Fri 11:37:34 AM 30.4036 -78.7361 188° South 454 522 40,000  Level Miami Center
Fri 11:38:34 AM 30.2739 -78.7603 189° South 466 536 40,000  Level Miami Center
Fri 11:39:34 AM 30.1464 -78.7819 188° South 472 543 40,000  Level Miami Center
Fri 11:40:34 AM 30.0106 -78.8131 191° South 467 537 40,000  Level Miami Center
Fri 11:41:34 AM 29.8811 -78.8300 186° South 467 537 40,000  Level Miami Center
Fri 11:42:34 AM 29.7556 -78.8564 190° South 467 537 40,000  Level Miami Center
Fri 11:43:34 AM 29.6239 -78.8683 185° South 472 543 40,000  Level Miami Center
Fri 11:44:34 AM 29.4944 -78.8850 186° South 463 533 40,000  Level Miami Center
Fri 11:45:34 AM 29.3669 -78.9039 187° South 469 540 40,000  Level Miami Center
Fri 11:46:34 AM 29.2375 -78.9181 185° South 470 541 40,000  Level Miami Center
Fri 11:47:34 AM 29.1119 -78.9397 189° South 475 547 40,000  Level Miami Center
Fri 11:48:34 AM 28.9761 -78.9536 185° South 475 547 40,000  Level Miami Center
Fri 11:49:34 AM 28.8464 -78.9703 186° South 475 547 40,000  Level Miami Center
Fri 11:50:34 AM 28.7106 -78.9889 187° South 480 552 40,000 -300 Level Miami Center
Fri 11:51:34 AM 28.5831 -79.0053 186° South 485 558 39,400 -1,100 Descending Miami Center
Fri 11:52:34 AM 28.4514 -79.0242 187° South 479 551 37,800 -1,650 Descending Miami Center
Fri 11:53:34 AM 28.3217 -79.0428 187° South 479 551 36,100 -1,550 Descending Miami Center
Fri 11:54:34 AM 28.1894 -79.0828 195° South 484 557 34,700 -1,350 Descending Miami Center
Fri 11:55:34 AM 28.0614 -79.1225 195° South 489 563 33,400 -1,300 Descending Miami Center
Fri 11:56:34 AM 27.9314 -79.1622 195° South 489 563 32,100 -1,300 Descending Miami Center
Fri 11:57:34 AM 27.8097 -79.2019 196° South 472 543 30,800 -1,250 Descending Miami Center
Fri 11:58:34 AM 27.6922 -79.2347 194° South 472 543 29,600 -1,250 Descending Miami Center
Fri 11:59:34 AM 27.5622 -79.2767 196° South 485 558 28,300 -1,400 Descending Miami Center
Fri 12:00:34 PM 27.4214 -79.3181 195° South 485 558 26,800 -1,450 Descending Miami Center
Fri 12:01:34 PM 27.2933 -79.3575 195° South 479 551 25,400 -1,400 Descending Miami Center
Fri 12:02:34 PM 27.1653 -79.3944 194° South 479 551 24,000 -1,200 Descending Miami Center
Fri 12:03:34 PM 27.0519 -79.4294 195° South 471 542 23,000 -1,667 Descending Miami Center
Fri 12:05:34 PM 26.8022 -79.5053 195° South 471 542 19,000 -2,000 Descending Miami Center
Fri 12:06:34 PM 26.6656 -79.5486 196° South 477 549 17,000 -1,950 Descending Miami Center
Fri 12:07:34 PM 26.5683 -79.6022 206° Southwest 444 511 15,100 -1,950 Descending Miami Center
Fri 12:08:34 PM 26.4850 -79.7000 226° Southwest 400 460 13,100 -1,556 Descending Miami Center
Fri 12:08:55 PM 26.4614 -79.7344 233° Southwest 327 376 13,000 -100 Descending Miami Center
Fri 12:09:34 PM 26.4419 -79.7756 242° Southwest 354 407 13,000  Level Miami Center
Fri 12:09:57 PM 26.4158 -79.8189 236° Southwest 305 351 13,000  Level Miami Center
Fri 12:10:34 PM 26.3878 -79.8669 237° Southwest 331 381 13,000  Level Miami Center
Fri 12:10:52 PM 26.3642 -79.8967 228° Southwest 378 435 13,000 -100 Level Miami Center
Fri 12:11:34 PM 26.3214 -79.9419 223° Southwest 357 411 12,900 -706 Descending Miami Center
Fri 12:12:34 PM 26.2236 -80.0228 217° Southwest 384 442 11,800 -1,050 Descending Miami Center
Fri 12:12:54 PM 26.1858 -80.0378 200° South 407 468 11,500 -1,000 Descending Miami Center
Fri 12:13:34 PM 26.1142 -80.0567 193° South 391 450 10,800 -1,075 Descending Miami Center
Fri 12:14:01 PM 26.0575 -80.0739 195° South 402 463 10,300 -800 Descending Miami Center
Fri 12:14:34 PM 26.0072 -80.0864 193° South 402 463 10,000 -441 Descending Miami Center
Fri 12:15:09 PM 25.9442 -80.0961 188° South 329 379 9,800 -600 Descending Miami Center
Fri 12:15:34 PM 25.9128 -80.0975 182° South 371 427 9,400 -968 Descending Miami Center
Fri 12:16:11 PM 25.8625 -80.1078 190° South 275 316 8,800 -1,200 Descending Miami Center
Fri 12:16:34 PM 25.8353 -80.1069 178° South 326 375 8,200 -1,967 Descending Miami Center
Fri 12:17:12 PM 25.7808 -80.1169 189° South 295 339 6,800 -1,419 Descending Miami Center
Fri 12:18:07 PM 25.7097 -80.1267 187° South 270 311 6,000 -776 Descending Miami Center
Fri 12:19:08 PM 25.6319 -80.1408 189° South 277 319 5,300 -689 Descending Miami Center
Fri 12:21:00 PM 25.4393 -80.2137 204° Southwest  Level FlightAware Approximate
Fri 12:28:00 PM 25.3167 -80.2667 200° South  Level FlightAware Approximate
Fri 12:29:00 PM 25.3254 -80.2748 200° South  Level Estimated
Fri 12:30:00 PM 25.3254 -80.2748 200° South  Level Estimated
Fri 12:31:00 PM 25.3254 -80.2748 200° South  Level Estimated
Fri 12:32:00 PM 25.3254 -80.2748 200° South  Level Estimated

Login

Don't have an account? Register now (free) for customized features, flight alerts, and more!